Fisherville, Tennessee
Current Conditions -  °F | °C
As of 3:50 PM on Thursday 23 Oct 2014 (Local Time) from KOLV Reporting Station
Overcast Overcast  
Wind Chill: 61°   Ceiling: 18000
Heat Index: 61°   Visibility: 10mi
Dew Point: 43°   Wind: 6mph
Humidity: 52%   Direction: 330°NNW
Pressure: 30.14"   Gusts: NA
Location:  35.0418°N, 89.6647°W
Report Text: KOLV 232050Z 33005KT 10SM OVC180 16/06 A3014
Loading
Personal Weather Stations






























Interactive Weather Map
Tropical Storm Tracking
New forecast layout! Learn more

10-Day Weather Forecast

Advertisements
Track Severe Weather on mobile